Time;durP1;ratioP1;P1;durP2;ratioP2;P2;SDS_P1;SDS_P2;PMS_P1;PMS_P2;Temp;Humidity;BMP_temperature;BMP_pressure;BME280_temperature;BME280_humidity;BME280_pressure;Samples;Min_cycle;Max_cycle;Signal;HPM_P1;HPM_P2
2022/05/20 00:02:06;;;;;;;5.97;5.18;;;14.00;99.90;;;;;;5037971;28;19916;-79
2022/05/20 00:04:31;;;;;;;10.48;5.88;;;14.00;99.90;;;;;;5054629;28;20111;-79
2022/05/20 00:06:57;;;;;;;8.23;5.82;;;14.00;99.90;;;;;;5037575;28;20132;-80
2022/05/20 00:09:23;;;;;;;6.18;5.47;;;14.00;99.90;;;;;;5038040;28;20040;-79
2022/05/20 00:11:49;;;;;;;7.93;6.30;;;14.00;99.90;;;;;;5037344;28;20040;-78
2022/05/20 00:14:14;;;;;;;10.88;6.38;;;13.90;99.90;;;;;;5054574;28;20524;-80
2022/05/20 00:16:40;;;;;;;9.32;6.05;;;13.90;99.90;;;;;;5054018;28;20040;-78
2022/05/20 00:19:07;;;;;;;7.72;5.45;;;13.90;99.90;;;;;;5054162;28;20357;-79
2022/05/20 00:21:34;;;;;;;6.72;5.65;;;13.90;99.90;;;;;;5053899;28;20025;-79
2022/05/20 00:23:59;;;;;;;8.70;6.40;;;14.00;99.90;;;;;;5053577;28;20083;-79
2022/05/20 00:26:26;;;;;;;11.45;6.60;;;14.00;99.90;;;;;;5037600;28;20075;-79
2022/05/20 00:28:53;;;;;;;;;;;14.00;99.90;;;;;;5054269;28;20740;-79
2022/05/20 00:31:20;;;;;;;8.20;6.05;;;14.10;99.90;;;;;;5054159;28;19917;-79
2022/05/20 00:33:46;;;;;;;11.38;6.55;;;14.10;99.90;;;;;;5053910;28;20098;-80
2022/05/20 00:36:12;;;;;;;8.23;6.53;;;14.10;99.90;;;;;;5054149;28;20037;-80
2022/05/20 00:38:38;;;;;;;10.07;6.75;;;14.00;99.90;;;;;;5037609;28;20029;-80
2022/05/20 00:41:05;;;;;;;11.93;7.00;;;14.00;99.90;;;;;;5037317;28;20770;-80
2022/05/20 00:43:37;;;;;;;9.57;6.82;;;14.00;99.90;;;;;;5020522;28;20480;-80
2022/05/20 00:46:06;;;;;;;11.20;7.38;;;14.00;99.90;;;;;;5052540;28;20483;-80
2022/05/20 00:48:32;;;;;;;10.75;7.65;;;14.00;99.90;;;;;;5053265;28;20048;-79
2022/05/20 00:51:05;;;;;;;9.85;7.03;;;13.80;99.90;;;;;;5053334;28;20036;-79
2022/05/20 00:53:51;;;;;;;8.55;7.13;;;13.80;99.90;;;;;;5037067;28;20043;-79
2022/05/20 00:56:22;;;;;;;11.77;7.53;;;13.70;99.90;;;;;;5053503;28;20098;-79
2022/05/20 00:58:49;;;;;;;13.00;7.10;;;13.70;99.90;;;;;;5052803;28;20040;-79
2022/05/20 01:01:15;;;;;;;9.68;7.47;;;13.60;99.90;;;;;;5053619;28;20370;-78
2022/05/20 01:03:42;;;;;;;11.52;8.07;;;13.60;99.90;;;;;;5020491;28;20028;-80
2022/05/20 01:06:09;;;;;;;9.82;7.10;;;13.50;99.90;;;;;;5053317;28;20041;-79
2022/05/20 01:08:38;;;;;;;11.80;7.75;;;13.50;99.90;;;;;;5053028;28;20032;-79
2022/05/20 01:11:04;;;;;;;11.23;7.55;;;13.40;99.90;;;;;;5084105;28;20127;-78
2022/05/20 01:13:31;;;;;;;9.52;7.40;;;13.40;99.90;;;;;;5052087;28;20430;-79
2022/05/20 01:16:02;;;;;;;13.65;8.55;;;13.30;99.90;;;;;;5036083;28;20388;-79
2022/05/20 01:18:33;;;;;;;11.35;7.97;;;13.30;99.90;;;;;;5036374;28;20041;-80
2022/05/20 01:20:59;;;;;;;13.07;8.50;;;13.20;99.90;;;;;;5036385;28;20049;-79
2022/05/20 01:23:27;;;;;;;9.43;7.95;;;13.20;99.90;;;;;;5052960;28;20377;-79
2022/05/20 01:25:56;;;;;;;11.43;7.65;;;13.20;99.90;;;;;;5052482;28;20456;-79
2022/05/20 01:28:24;;;;;;;12.23;8.07;;;13.20;99.90;;;;;;5052905;28;20040;-79
2022/05/20 01:31:04;;;;;;;13.27;8.10;;;13.20;99.90;;;;;;5052331;28;20044;-79
2022/05/20 01:33:34;;;;;;;11.02;7.88;;;13.20;99.90;;;;;;5036179;28;20051;-80
2022/05/20 01:36:03;;;;;;;10.55;7.65;;;13.20;99.90;;;;;;5050598;28;20109;-79
2022/05/20 01:38:29;;;;;;;8.95;7.65;;;13.20;99.90;;;;;;5035831;28;20040;-79
2022/05/20 01:41:06;;;;;;;12.82;8.18;;;13.20;99.90;;;;;;5035830;28;20040;-79
2022/05/20 01:43:51;;;;;;;12.98;8.52;;;13.20;99.90;;;;;;5052537;28;20044;-80
2022/05/20 01:46:34;;;;;;;12.30;8.57;;;13.20;99.90;;;;;;5052401;28;20041;-80
2022/05/20 01:49:20;;;;;;;13.63;8.80;;;13.10;99.90;;;;;;5050655;28;20124;-79
2022/05/20 01:52:05;;;;;;;15.90;8.70;;;13.20;99.90;;;;;;5051940;28;20468;-80
2022/05/20 01:54:42;;;;;;;15.02;8.23;;;13.20;99.90;;;;;;5051625;28;20129;-79
2022/05/20 01:57:21;;;;;;;11.93;8.52;;;13.20;99.90;;;;;;5052005;28;20080;-80
2022/05/20 01:59:53;;;;;;;13.20;8.93;;;13.20;99.90;;;;;;5036070;28;20041;-79
2022/05/20 02:02:40;;;;;;;12.73;9.18;;;13.20;99.90;;;;;;5050662;28;20119;-79
2022/05/20 02:05:13;;;;;;;14.40;9.45;;;13.20;99.90;;;;;;5085118;28;20055;-80
2022/05/20 02:07:44;;;;;;;13.55;9.02;;;13.20;99.90;;;;;;5052079;28;20055;-79
2022/05/20 02:10:36;;;;;;;16.05;9.10;;;13.20;99.90;;;;;;5051596;28;20141;-79
2022/05/20 02:13:05;;;;;;;11.65;8.93;;;13.20;99.90;;;;;;5051999;28;20477;-79
2022/05/20 02:15:59;;;;;;;14.75;9.07;;;13.20;99.90;;;;;;5052278;28;20442;-80
2022/05/20 02:18:30;;;;;;;13.85;8.60;;;13.10;99.90;;;;;;5051396;28;20241;-80
2022/05/20 02:21:05;;;;;;;13.57;8.48;;;13.10;99.90;;;;;;5052002;28;20036;-79
2022/05/20 02:23:35;;;;;;;15.32;9.57;;;13.00;99.90;;;;;;5051758;28;20147;-79
2022/05/20 02:26:07;;;;;;;13.05;8.52;;;13.00;99.90;;;;;;5035835;28;20386;-80
2022/05/20 02:28:41;;;;;;;16.20;9.35;;;12.90;99.90;;;;;;5035594;28;20571;-79
2022/05/20 02:31:16;;;;;;;12.32;8.48;;;12.90;99.90;;;;;;5051751;28;20083;-80
2022/05/20 02:33:42;;;;;;;15.73;9.15;;;12.90;99.90;;;;;;5050282;28;20028;-79
2022/05/20 02:36:23;;;;;;;14.95;9.43;;;12.80;99.90;;;;;;5051867;28;20097;-79
2022/05/20 02:38:49;;;;;;;17.02;9.90;;;12.80;99.90;;;;;;5052250;28;20143;-79
2022/05/20 02:41:16;;;;;;;14.00;9.63;;;12.70;99.90;;;;;;5019126;28;20123;-80
2022/05/20 02:43:42;;;;;;;15.15;10.05;;;12.70;99.90;;;;;;5036119;28;20508;-80
2022/05/20 02:46:09;;;;;;;16.25;9.93;;;12.70;99.90;;;;;;5051755;28;20044;-80
2022/05/20 02:48:34;;;;;;;14.68;10.70;;;12.60;99.90;;;;;;5051928;28;20037;-79
2022/05/20 02:51:00;;;;;;;13.73;10.18;;;12.70;99.90;;;;;;5018978;28;20438;-80
2022/05/20 02:53:26;;;;;;;14.20;10.43;;;12.70;99.90;;;;;;5052038;28;20044;-80
2022/05/20 02:55:52;;;;;;;16.33;10.52;;;12.70;99.90;;;;;;5035292;28;20473;-80
2022/05/20 03:04:09;;;;;;;19.73;10.80;;;12.70;99.90;;;;;;5051542;28;20067;-80
2022/05/20 03:06:36;;;;;;;14.70;10.00;;;12.70;99.90;;;;;;5051850;28;20037;-79
2022/05/20 03:09:04;;;;;;;16.85;11.05;;;12.60;99.90;;;;;;5053550;28;20036;-79
2022/05/20 03:11:29;;;;;;;16.42;10.55;;;12.60;99.90;;;;;;5055696;28;20051;-79
2022/05/20 03:13:55;;;;;;;19.50;10.53;;;12.50;99.90;;;;;;5039236;28;20131;-80
2022/05/20 03:16:21;;;;;;;13.53;10.00;;;12.50;99.90;;;;;;5056071;28;20290;-79
2022/05/20 03:18:46;;;;;;;15.57;10.60;;;12.50;99.90;;;;;;5055767;28;20344;-79
2022/05/20 03:21:12;;;;;;;17.13;11.10;;;12.40;99.90;;;;;;5055034;28;20226;-79
2022/05/20 03:23:37;;;;;;;15.57;10.97;;;12.30;99.90;;;;;;5038333;28;20282;-79
2022/05/20 03:26:04;;;;;;;16.73;10.85;;;12.30;99.90;;;;;;5038494;28;20059;-80
2022/05/20 03:28:30;;;;;;;15.23;10.55;;;12.20;99.90;;;;;;5039168;28;20494;-79
2022/05/20 03:31:03;;;;;;;15.73;11.30;;;12.20;99.90;;;;;;5022190;28;20032;-80
2022/05/20 03:33:29;;;;;;;17.42;12.43;;;12.20;99.90;;;;;;5055429;28;20089;-80
2022/05/20 03:35:55;;;;;;;14.37;11.47;;;12.20;99.90;;;;;;5055211;28;20032;-79
2022/05/20 03:38:20;;;;;;;15.25;11.27;;;12.20;99.90;;;;;;5038891;28;20040;-80
2022/05/20 03:40:46;;;;;;;14.00;10.70;;;12.20;99.90;;;;;;5037768;28;20036;-78
2022/05/20 03:43:12;;;;;;;12.20;9.70;;;12.10;99.90;;;;;;5054957;28;20044;-80
2022/05/20 03:45:41;;;;;;;12.00;9.17;;;12.10;99.90;;;;;;5054978;28;20283;-79
2022/05/20 03:48:07;;;;;;;55.95;12.70;;;12.10;99.90;;;;;;5022098;28;20543;-79
2022/05/20 03:50:32;;;;;;;33.85;11.32;;;12.00;99.90;;;;;;5054740;28;20135;-79
2022/05/20 03:52:59;;;;;;;13.27;9.57;;;12.00;99.90;;;;;;5021838;28;20032;-79
2022/05/20 03:55:26;;;;;;;27.25;9.40;;;12.00;99.90;;;;;;5055083;28;20370;-80
2022/05/20 03:57:51;;;;;;;;;;;12.00;99.90;;;;;;5039110;28;20115;-80
2022/05/20 04:00:18;;;;;;;24.38;9.50;;;11.90;99.90;;;;;;5053963;28;20008;-79
2022/05/20 04:02:43;;;;;;;13.40;10.05;;;11.90;99.90;;;;;;5038172;28;20500;-80
2022/05/20 04:05:09;;;;;;;36.90;9.95;;;11.90;99.90;;;;;;5054816;28;20067;-80
2022/05/20 04:07:36;;;;;;;142.38;13.88;;;11.90;99.90;;;;;;5038328;28;20033;-80
2022/05/20 04:10:02;;;;;;;53.60;10.80;;;11.80;99.90;;;;;;5054252;28;20045;-79
2022/05/20 04:12:43;;;;;;;52.72;10.65;;;11.80;99.90;;;;;;5051991;28;20083;-80
2022/05/20 04:15:14;;;;;;;19.17;9.27;;;11.80;99.90;;;;;;5037765;28;20044;-80
2022/05/20 04:17:40;;;;;;;14.35;10.10;;;11.80;99.90;;;;;;5038118;28;20119;-82
2022/05/20 04:20:07;;;;;;;14.40;10.98;;;11.80;99.90;;;;;;5054160;28;20036;-81
2022/05/20 04:22:37;;;;;;;15.63;11.32;;;11.90;99.90;;;;;;5052200;28;20067;-83
2022/05/20 04:25:04;;;;;;;13.45;10.23;;;11.90;99.90;;;;;;5037820;28;20076;-81
2022/05/20 04:27:30;;;;;;;14.93;11.23;;;11.90;99.90;;;;;;5054235;28;20123;-83
2022/05/20 04:29:56;;;;;;;13.65;11.07;;;11.90;99.90;;;;;;5085767;28;20210;-83
2022/05/20 04:32:22;;;;;;;14.77;11.70;;;11.90;99.90;;;;;;5054325;28;20039;-83
2022/05/20 04:34:48;;;;;;;16.60;12.85;;;11.90;99.90;;;;;;5054538;28;20131;-82
2022/05/20 04:37:14;;;;;;;16.20;12.33;;;11.90;99.90;;;;;;5054185;28;20040;-83
2022/05/20 04:39:41;;;;;;;16.92;12.65;;;11.90;99.90;;;;;;5053924;28;20310;-82
2022/05/20 04:47:39;;;;;;;22.25;12.60;;;11.90;99.90;;;;;;5040280;28;20079;-83
2022/05/20 04:50:06;;;;;;;16.53;12.23;;;11.90;99.90;;;;;;5037119;28;20076;-83
2022/05/20 04:52:32;;;;;;;17.38;13.30;;;11.90;99.90;;;;;;5037279;28;20036;-83
2022/05/20 04:54:58;;;;;;;26.98;14.93;;;11.90;99.90;;;;;;5053972;28;20514;-84
2022/05/20 04:57:29;;;;;;;40.35;15.02;;;12.00;99.90;;;;;;5037448;28;20485;-83
2022/05/20 05:00:10;;;;;;;47.60;16.23;;;12.00;99.90;;;;;;5052375;28;20063;-84
2022/05/20 05:02:37;;;;;;;57.28;16.52;;;12.10;99.90;;;;;;5052754;28;20036;-84
2022/05/20 05:05:03;;;;;;;;;;;12.10;99.90;;;;;;5053588;28;20077;-83
2022/05/20 05:07:29;;;;;;;177.13;17.75;;;12.20;99.90;;;;;;5053915;28;19932;-83
2022/05/20 05:09:55;;;;;;;87.15;14.93;;;12.20;99.90;;;;;;5053826;28;20041;-83
2022/05/20 05:12:22;;;;;;;42.72;13.90;;;12.20;99.90;;;;;;5053373;28;20504;-84
2022/05/20 05:14:50;;;;;;;115.93;16.48;;;12.20;99.90;;;;;;5054039;28;20041;-84
2022/05/20 05:18:09;;;;;;;76.43;14.93;;;12.30;99.90;;;;;;5053284;28;20044;-84
2022/05/20 05:20:06;;;;;;;95.05;15.80;;;12.20;99.90;;;;;;5052435;28;20033;-84
2022/05/20 05:22:32;;;;;;;82.43;15.18;;;12.30;99.90;;;;;;5037248;28;20412;-83
2022/05/20 05:24:57;;;;;;;42.35;13.35;;;12.40;99.90;;;;;;5050007;28;20041;-84
2022/05/20 05:27:23;;;;;;;27.75;14.73;;;12.50;99.90;;;;;;5049699;28;20053;-83
2022/05/20 05:29:49;;;;;;;36.17;14.40;;;12.50;99.90;;;;;;5033667;28;20109;-84
2022/05/20 05:32:14;;;;;;;26.10;13.80;;;12.60;99.90;;;;;;5032506;28;20045;-83
2022/05/20 05:34:41;;;;;;;15.38;13.45;;;12.60;99.90;;;;;;5033646;28;20283;-84
2022/05/20 05:37:07;;;;;;;24.63;14.10;;;12.70;99.90;;;;;;5049732;28;20053;-83
2022/05/20 05:39:33;;;;;;;16.73;14.32;;;12.90;99.90;;;;;;5050146;28;20833;-83
2022/05/20 05:42:01;;;;;;;20.50;15.05;;;13.10;99.90;;;;;;5050248;28;20039;-83
2022/05/20 05:44:26;;;;;;;19.33;14.45;;;13.30;99.90;;;;;;5030564;28;20028;-83
2022/05/20 05:46:52;;;;;;;17.27;14.70;;;13.40;99.90;;;;;;5050172;28;20041;-84
2022/05/20 05:49:18;;;;;;;17.42;14.02;;;13.60;99.90;;;;;;5049658;28;20040;-84
2022/05/20 05:51:44;;;;;;;16.52;13.20;;;13.80;99.90;;;;;;5049896;28;20041;-84
2022/05/20 05:54:10;;;;;;;13.90;12.18;;;14.00;99.90;;;;;;5049714;28;20040;-83
2022/05/20 05:56:36;;;;;;;16.55;12.25;;;14.40;99.90;;;;;;5032991;28;20108;-84
2022/05/20 05:59:03;;;;;;;13.52;11.27;;;15.00;99.90;;;;;;5033488;28;20085;-83
2022/05/20 06:01:29;;;;;;;14.07;11.05;;;15.60;99.90;;;;;;5016332;28;20041;-83
2022/05/20 06:03:54;;;;;;;15.90;11.57;;;15.80;99.90;;;;;;5049953;28;20095;-84
2022/05/20 06:06:20;;;;;;;11.20;9.85;;;16.10;99.90;;;;;;5033030;28;20040;-84
2022/05/20 06:08:46;;;;;;;15.15;10.77;;;16.50;99.90;;;;;;5016659;28;20115;-83
2022/05/20 06:11:13;;;;;;;12.75;9.23;;;16.90;99.90;;;;;;5049256;28;20055;-82
2022/05/20 06:13:39;;;;;;;11.85;8.63;;;16.90;99.90;;;;;;5049587;28;20043;-84
2022/05/20 06:16:05;;;;;;;14.05;8.13;;;17.20;99.90;;;;;;5049862;28;20044;-83
2022/05/20 06:18:31;;;;;;;12.60;8.35;;;17.50;99.90;;;;;;5049267;28;20037;-83
2022/05/20 06:20:57;;;;;;;11.73;7.47;;;17.40;99.90;;;;;;5032978;28;20377;-83
2022/05/20 06:23:23;;;;;;;11.07;6.85;;;17.20;99.90;;;;;;5033056;28;20033;-82
2022/05/20 06:25:51;;;;;;;10.05;6.93;;;17.10;99.90;;;;;;5050023;28;20045;-83
2022/05/20 06:28:18;;;;;;;11.88;6.93;;;17.10;99.90;;;;;;5032403;28;20100;-83
2022/05/20 06:30:44;;;;;;;10.82;6.20;;;17.50;99.90;;;;;;5047382;28;20037;-83
2022/05/20 06:33:10;;;;;;;10.80;6.80;;;17.50;99.90;;;;;;5049306;28;20611;-82
2022/05/20 06:41:06;;;;;;;7.80;5.25;;;17.00;99.90;;;;;;5049544;28;20049;-81
2022/05/20 06:43:34;;;;;;;8.45;5.20;;;17.30;99.90;;;;;;5034042;28;20076;-82
2022/05/20 06:46:02;;;;;;;8.43;5.35;;;17.30;99.90;;;;;;5053450;28;20408;-81
2022/05/20 06:48:45;;;;;;;8.38;4.70;;;17.20;99.90;;;;;;5052767;28;20044;-81
2022/05/20 06:51:12;;;;;;;8.25;5.38;;;17.20;99.90;;;;;;5053329;28;20477;-80
2022/05/20 06:53:39;;;;;;;9.23;5.53;;;17.10;99.90;;;;;;5053048;28;20045;-82
2022/05/20 06:56:04;;;;;;;;;;;17.20;99.90;;;;;;5036880;28;20090;-81
2022/05/20 06:58:31;;;;;;;8.98;5.38;;;16.90;99.90;;;;;;5052919;28;19988;-81
2022/05/20 07:00:58;;;;;;;10.32;5.75;;;16.90;99.90;;;;;;5053117;28;20037;-83
2022/05/20 07:03:24;;;;;;;8.82;5.72;;;16.90;99.90;;;;;;5052609;28;20041;-83
2022/05/20 07:05:50;;;;;;;11.95;5.95;;;17.00;99.90;;;;;;5036467;28;20500;-83
2022/05/20 07:08:16;;;;;;;8.30;5.50;;;16.90;99.90;;;;;;5052666;28;20123;-83
2022/05/20 07:10:42;;;;;;;8.40;5.28;;;16.80;99.90;;;;;;5052912;28;20564;-83
2022/05/20 07:13:07;;;;;;;8.55;5.82;;;16.80;99.90;;;;;;5037013;28;20071;-84
2022/05/20 07:15:33;;;;;;;7.70;4.57;;;17.10;99.90;;;;;;5036022;28;20037;-83
2022/05/20 07:17:59;;;;;;;6.82;3.97;;;17.60;99.90;;;;;;5053105;28;20037;-83
2022/05/20 07:20:25;;;;;;;6.28;3.92;;;18.10;99.90;;;;;;5052310;28;20459;-82
2022/05/20 07:22:51;;;;;;;8.02;4.30;;;18.50;99.90;;;;;;5052529;28;20124;-82
2022/05/20 07:25:18;;;;;;;7.88;4.40;;;18.80;99.90;;;;;;5052034;28;20052;-83
2022/05/20 07:27:45;;;;;;;7.50;4.47;;;19.00;99.90;;;;;;5052667;28;20049;-83
2022/05/20 07:30:12;;;;;;;7.90;4.22;;;19.10;99.90;;;;;;5035974;28;20041;-83
2022/05/20 07:32:38;;;;;;;7.00;4.10;;;19.00;99.90;;;;;;5052759;28;20037;-84
2022/05/20 07:35:04;;;;;;;6.60;4.47;;;18.90;99.90;;;;;;5035862;28;20041;-83
2022/05/20 07:37:30;;;;;;;;;;;18.50;99.90;;;;;;5052513;28;20048;-83
2022/05/20 07:39:57;;;;;;;9.95;5.05;;;18.00;99.90;;;;;;5052210;28;19923;-83
2022/05/20 07:42:22;;;;;;;;;;;18.00;99.90;;;;;;5052486;28;20094;-82
2022/05/20 07:44:49;;;;;;;7.70;4.22;;;17.70;99.90;;;;;;5052522;28;20000;-84
2022/05/20 07:47:15;;;;;;;8.65;4.20;;;17.70;99.90;;;;;;5035322;28;20041;-83
2022/05/20 07:49:40;;;;;;;8.55;3.28;;;17.70;99.90;;;;;;5035671;28;20037;-82
2022/05/20 07:52:09;;;;;;;6.57;3.30;;;17.70;99.90;;;;;;5052228;28;20076;-83
2022/05/20 07:54:40;;;;;;;7.65;3.42;;;17.90;99.90;;;;;;5051337;28;20051;-83
2022/05/20 07:57:11;;;;;;;7.80;3.72;;;18.30;99.90;;;;;;5052144;28;20133;-82
2022/05/20 07:59:50;;;;;;;5.65;3.47;;;18.50;99.90;;;;;;5051846;28;20400;-83
2022/05/20 08:02:19;;;;;;;7.75;3.50;;;18.90;99.90;;;;;;5050797;28;20115;-83
2022/05/20 08:04:55;;;;;;;5.78;3.55;;;19.30;99.90;;;;;;5051948;28;20040;-84
2022/05/20 08:07:33;;;;;;;7.20;3.33;;;19.40;99.90;;;;;;5035016;28;20033;-83
2022/05/20 08:10:11;;;;;;;7.53;4.32;;;19.20;99.90;;;;;;5051847;28;20043;-82
2022/05/20 08:12:37;;;;;;;7.85;3.80;;;18.80;99.90;;;;;;5051725;28;20037;-83
2022/05/20 08:15:03;;;;;;;7.22;3.85;;;18.80;99.90;;;;;;5049656;28;20037;-83
2022/05/20 08:17:29;;;;;;;;;;;18.90;99.90;;;;;;5051820;28;20041;-83
2022/05/20 08:19:56;;;;;;;5.35;3.00;;;19.10;99.90;;;;;;5051799;28;20313;-83
2022/05/20 08:22:23;;;;;;;7.80;2.90;;;18.90;99.90;;;;;;5051462;28;20477;-82
2022/05/20 08:24:53;;;;;;;4.78;2.85;;;19.00;99.90;;;;;;5034827;28;20128;-82
2022/05/20 08:27:24;;;;;;;3.90;1.98;;;19.30;99.90;;;;;;5051281;28;20049;-83
2022/05/20 08:29:51;;;;;;;5.80;2.63;;;19.80;99.90;;;;;;5051725;28;20049;-84
2022/05/20 08:32:17;;;;;;;6.30;2.60;;;20.30;99.90;;;;;;5051029;28;20040;-83
2022/05/20 08:34:43;;;;;;;6.20;2.72;;;20.60;99.90;;;;;;5048148;28;20091;-83
2022/05/20 08:37:10;;;;;;;4.57;2.45;;;20.70;99.90;;;;;;5034334;28;20033;-83
2022/05/20 08:39:36;;;;;;;5.13;2.50;;;20.50;99.90;;;;;;5033210;28;20068;-83
2022/05/20 08:42:04;;;;;;;9.05;2.83;;;20.30;99.90;;;;;;5051441;28;20075;-83
2022/05/20 08:44:33;;;;;;;4.13;2.95;;;20.30;99.90;;;;;;5034720;28;20521;-83
2022/05/20 08:47:36;;;;;;;7.15;3.05;;;20.30;99.90;;;;;;5051000;28;20025;-82
2022/05/20 08:50:07;;;;;;;5.85;2.38;;;20.40;99.90;;;;;;5038405;28;20044;-83
2022/05/20 08:52:33;;;;;;;6.05;2.85;;;21.00;99.90;;;;;;5050699;28;20037;-83
2022/05/20 08:54:59;;;;;;;5.30;2.65;;;21.30;99.90;;;;;;5035006;28;20036;-83
2022/05/20 08:57:28;;;;;;;4.45;2.88;;;21.40;99.90;;;;;;5050668;28;20052;-83
2022/05/20 08:59:55;;;;;;;6.90;2.72;;;21.60;99.90;;;;;;5050858;28;20040;-83
2022/05/20 09:02:21;;;;;;;5.60;2.58;;;21.90;99.90;;;;;;5050719;28;20509;-82
2022/05/20 09:04:48;;;;;;;3.40;2.20;;;22.10;99.90;;;;;;5034503;28;20064;-83
2022/05/20 09:07:15;;;;;;;6.70;2.40;;;22.00;99.90;;;;;;5033778;28;20113;-85
2022/05/20 09:09:47;;;;;;;2.97;1.90;;;22.00;99.90;;;;;;5050149;28;20041;-85
2022/05/20 09:12:36;;;;;;;7.05;2.13;;;22.30;99.90;;;;;;5034729;28;20049;-85
2022/05/20 09:15:47;;;;;;;5.43;2.20;;;22.00;99.90;;;;;;5049414;28;20041;-85
2022/05/20 09:18:20;;;;;;;3.47;1.73;;;22.20;99.90;;;;;;5050874;28;20051;-82
2022/05/20 09:20:53;;;;;;;4.03;2.20;;;22.10;99.90;;;;;;5050408;28;20047;-82
2022/05/20 09:23:20;;;;;;;4.03;2.05;;;22.30;99.90;;;;;;5049007;28;20037;-81
2022/05/20 09:25:59;;;;;;;3.70;2.20;;;22.20;99.90;;;;;;5048052;28;20045;-81
2022/05/20 09:28:34;;;;;;;6.07;2.70;;;22.20;99.90;;;;;;5082196;28;20385;-83
2022/05/20 09:31:15;;;;;;;5.32;2.67;;;22.20;99.90;;;;;;5033936;28;20033;-83
2022/05/20 09:33:52;;;;;;;4.88;2.45;;;22.50;99.90;;;;;;5049657;28;20053;-85
2022/05/20 09:36:58;;;;;;;4.60;2.40;;;22.60;99.90;;;;;;5048751;28;20037;-82
2022/05/20 09:39:48;;;;;;;4.70;2.50;;;22.80;99.90;;;;;;5010982;28;20448;-82
2022/05/20 09:42:27;;;;;;;4.97;2.42;;;22.70;99.90;;;;;;5049071;28;20051;-86
2022/05/20 09:44:58;;;;;;;4.18;2.28;;;22.80;99.90;;;;;;5031935;28;20040;-80
2022/05/20 09:47:54;;;;;;;4.70;2.03;;;22.60;99.90;;;;;;5083246;28;21280;-83
2022/05/20 09:50:33;;;;;;;4.00;2.25;;;22.70;99.90;;;;;;5049318;28;20029;-85
2022/05/20 09:53:21;;;;;;;4.43;2.15;;;22.60;99.90;;;;;;5049783;28;20071;-79
2022/05/20 09:55:47;;;;;;;5.32;1.77;;;22.30;99.90;;;;;;5048324;28;20047;-80
2022/05/20 09:58:22;;;;;;;;;;;22.20;99.90;;;;;;5017704;28;20120;-82
2022/05/20 10:00:53;;;;;;;3.90;1.67;;;22.00;99.90;;;;;;5047918;28;19924;-82
2022/05/20 10:03:35;;;;;;;4.97;1.90;;;21.90;99.90;;;;;;5049739;28;20090;-82
2022/05/20 10:06:14;;;;;;;4.28;2.03;;;21.70;99.90;;;;;;5049879;28;20052;-81
2022/05/20 10:08:57;;;;;;;4.53;1.95;;;21.30;99.90;;;;;;5032514;28;20091;-81
2022/05/20 10:11:37;;;;;;;5.40;1.70;;;21.50;99.90;;;;;;5049595;28;20040;-81
2022/05/20 10:14:18;;;;;;;3.35;1.65;;;21.30;99.90;;;;;;5049726;28;20047;-82
2022/05/20 10:16:52;;;;;;;4.25;1.98;;;21.10;99.90;;;;;;5049153;28;20083;-82
2022/05/20 10:19:48;;;;;;;5.97;2.30;;;21.20;99.90;;;;;;5049546;28;20044;-83
2022/05/20 10:22:26;;;;;;;3.78;1.90;;;21.20;99.90;;;;;;5049379;28;20126;-84
2022/05/20 10:25:00;;;;;;;5.80;1.80;;;21.20;99.90;;;;;;5047005;28;20041;-82
2022/05/20 10:27:34;;;;;;;3.35;1.65;;;21.20;99.90;;;;;;5047993;28;20053;-82
2022/05/20 10:33:05;;;;;;;6.45;1.63;;;21.10;99.90;;;;;;5048670;28;20485;-83
2022/05/20 10:36:14;;;;;;;3.28;1.50;;;21.30;99.90;;;;;;5048872;28;20056;-82
2022/05/20 10:39:08;;;;;;;3.00;1.58;;;21.50;99.90;;;;;;5047569;28;20047;-81
2022/05/20 10:41:46;;;;;;;5.18;2.30;;;21.80;99.90;;;;;;5032481;28;20601;-85
2022/05/20 10:50:39;;;;;;;5.88;2.58;;;21.70;99.90;;;;;;5047798;28;20048;-80
2022/05/20 10:53:22;;;;;;;6.05;2.63;;;21.70;99.90;;;;;;5031702;28;20045;-81
2022/05/20 10:56:13;;;;;;;4.45;2.50;;;21.40;99.90;;;;;;5047450;28;20048;-80
2022/05/20 10:58:59;;;;;;;7.47;3.08;;;21.20;99.90;;;;;;5048467;28;20081;-80
2022/05/20 11:01:55;;;;;;;7.90;2.78;;;21.10;99.90;;;;;;5048351;28;20528;-80
2022/05/20 11:04:46;;;;;;;5.85;2.85;;;21.30;99.90;;;;;;5047707;28;20029;-79
2022/05/20 11:07:42;;;;;;;4.78;2.63;;;21.40;99.90;;;;;;5049017;28;20041;-83
2022/05/20 11:10:14;;;;;;;6.82;2.50;;;21.30;99.90;;;;;;5048883;28;20508;-83
2022/05/20 11:13:01;;;;;;;7.38;2.40;;;21.50;99.90;;;;;;5032002;28;20086;-81
2022/05/20 11:15:55;;;;;;;4.50;2.67;;;21.70;99.90;;;;;;5032032;28;20099;-82
2022/05/20 11:18:34;;;;;;;4.55;3.03;;;21.60;99.90;;;;;;5048113;28;20045;-82
2022/05/20 11:21:30;;;;;;;4.13;2.83;;;21.80;99.90;;;;;;5047867;28;20029;-81
2022/05/20 11:24:36;;;;;;;5.80;2.87;;;21.80;99.90;;;;;;5032418;28;20128;-82
2022/05/20 11:27:40;;;;;;;4.60;2.92;;;22.00;99.90;;;;;;5048542;28;20053;-78
2022/05/20 11:30:51;;;;;;;4.30;2.90;;;22.30;99.90;;;;;;5049405;28;20045;-78
2022/05/20 11:33:33;;;;;;;5.38;2.92;;;22.50;99.90;;;;;;5028577;28;20155;-77
2022/05/20 11:36:55;;;;;;;5.78;3.28;;;22.50;99.90;;;;;;5051940;28;20037;-78
2022/05/20 11:39:44;;;;;;;4.53;2.83;;;22.40;99.90;;;;;;4975242;28;20050;-86
2022/05/20 11:42:49;;;;;;;5.55;3.55;;;22.70;99.90;;;;;;5032445;28;20128;-85
2022/05/20 11:45:39;;;;;;;4.90;2.95;;;22.90;99.90;;;;;;5052227;28;20049;-85
2022/05/20 11:48:25;;;;;;;5.80;3.50;;;22.90;99.90;;;;;;5035965;28;20110;-84
2022/05/20 11:50:57;;;;;;;5.35;3.63;;;22.70;99.90;;;;;;5051296;28;20041;-86
2022/05/20 11:53:42;;;;;;;6.15;3.33;;;22.70;99.90;;;;;;5035757;28;20103;-85
2022/05/20 11:56:21;;;;;;;6.18;3.25;;;22.70;99.90;;;;;;5068079;28;20477;-84
2022/05/20 11:59:01;;;;;;;4.95;3.60;;;22.80;99.90;;;;;;5051717;28;20040;-84
2022/05/20 12:01:27;;;;;;;6.57;3.05;;;22.80;99.90;;;;;;5084710;28;20488;-85
2022/05/20 12:04:07;;;;;;;6.60;3.10;;;22.90;99.90;;;;;;5018701;28;20194;-84
2022/05/20 12:06:49;;;;;;;5.30;3.00;;;23.00;99.90;;;;;;5052036;28;20120;-84
2022/05/20 12:09:46;;;;;;;6.47;3.17;;;22.70;99.90;;;;;;5052102;28;20102;-83
2022/05/20 12:12:31;;;;;;;4.93;2.63;;;22.60;99.90;;;;;;5031586;28;20135;-80
2022/05/20 12:15:12;;;;;;;4.60;2.45;;;22.50;99.30;;;;;;5049068;28;20116;-81
2022/05/20 12:17:43;;;;;;;4.30;2.20;;;22.50;99.10;;;;;;5080699;28;20044;-80
2022/05/20 12:26:16;;;;;;;3.65;2.33;;;22.90;98.20;;;;;;5051087;28;20049;-85
2022/05/20 12:28:42;;;;;;;5.13;2.95;;;23.10;98.20;;;;;;5034194;28;20032;-84
2022/05/20 12:31:20;;;;;;;;;;;23.00;98.50;;;;;;5035244;28;20037;-84
2022/05/20 12:33:54;;;;;;;;;;;22.90;97.50;;;;;;5032400;28;19966;-84
2022/05/20 12:36:29;;;;;;;4.75;2.22;;;22.90;98.60;;;;;;5034999;28;19917;-83
2022/05/20 12:39:07;;;;;;;3.20;2.00;;;23.00;96.40;;;;;;5050636;28;20040;-82
2022/05/20 12:41:57;;;;;;;4.43;3.03;;;23.20;96.40;;;;;;5051216;28;20033;-83
2022/05/20 12:44:22;;;;;;;3.92;2.30;;;23.60;96.00;;;;;;5032582;28;20093;-83
2022/05/20 12:47:07;;;;;;;;;;;23.40;96.90;;;;;;5051217;28;20060;-84
2022/05/20 12:49:36;;;;;;;6.43;3.83;;;23.30;97.10;;;;;;5049879;28;20368;-86
2022/05/20 12:52:43;;;;;;;5.13;2.83;;;23.10;97.20;;;;;;5034264;28;20489;-84
2022/05/20 12:55:27;;;;;;;4.80;3.17;;;23.00;97.30;;;;;;5004262;28;20132;-83
2022/05/20 12:57:55;;;;;;;5.05;3.65;;;22.90;97.60;;;;;;5050734;28;20068;-85
2022/05/20 13:00:34;;;;;;;6.07;4.30;;;22.90;97.70;;;;;;5050753;28;20036;-84
2022/05/20 13:03:22;;;;;;;7.60;5.13;;;22.80;97.70;;;;;;5034262;28;20070;-83
2022/05/20 13:05:50;;;;;;;6.47;4.78;;;22.80;98.40;;;;;;5017457;28;20041;-87
2022/05/20 13:08:20;;;;;;;8.82;5.10;;;22.60;98.50;;;;;;5050579;28;20033;-86
2022/05/20 13:10:46;;;;;;;5.97;4.50;;;22.50;99.00;;;;;;5051091;28;20044;-88
2022/05/20 13:13:24;;;;;;;4.80;3.97;;;22.40;99.20;;;;;;5034468;28;20041;-87
2022/05/20 13:15:53;;;;;;;4.82;4.30;;;22.50;97.90;;;;;;5015997;28;20075;-84
2022/05/20 13:18:28;;;;;;;6.80;4.30;;;22.20;97.90;;;;;;5033932;28;20048;-85
2022/05/20 13:21:21;;;;;;;5.03;3.83;;;22.10;98.40;;;;;;5050215;28;20068;-85
2022/05/20 13:23:55;;;;;;;5.70;4.00;;;21.90;98.30;;;;;;5028568;28;20560;-85
2022/05/20 13:26:28;;;;;;;5.28;3.28;;;21.90;98.30;;;;;;5047973;28;20053;-84
2022/05/20 13:29:09;;;;;;;4.18;3.17;;;21.80;96.80;;;;;;5049538;28;20032;-85
2022/05/20 13:31:35;;;;;;;4.55;3.10;;;21.80;97.30;;;;;;5050056;28;20108;-85
2022/05/20 13:34:01;;;;;;;5.25;3.58;;;21.70;97.80;;;;;;5050208;28;20750;-84
2022/05/20 13:36:43;;;;;;;5.30;3.35;;;21.80;97.80;;;;;;5017490;28;20145;-85
2022/05/20 13:39:14;;;;;;;8.50;4.68;;;21.80;98.50;;;;;;5050335;28;20083;-85
2022/05/20 13:41:40;;;;;;;9.10;4.10;;;21.70;99.10;;;;;;5049822;28;20044;-85
2022/05/20 13:44:07;;;;;;;5.05;4.05;;;21.70;99.50;;;;;;5049744;28;20044;-85